createdAt,value
2023-01-29T00:00:20.348Z,2.47
2023-01-29T00:02:47.023Z,2.47
2023-01-29T00:05:27.034Z,2.47
2023-01-29T00:07:55.445Z,2.49
2023-01-29T00:10:22.415Z,2.50
2023-01-29T00:12:48.897Z,2.49
2023-01-29T00:15:15.516Z,2.47
2023-01-29T00:17:41.926Z,2.46
2023-01-29T00:20:09.326Z,2.46
2023-01-29T00:22:36.703Z,2.45
2023-01-29T00:25:03.571Z,2.45
2023-01-29T00:27:30.087Z,2.47
2023-01-29T00:30:09.577Z,2.46
2023-01-29T00:32:36.399Z,2.46
2023-01-29T00:35:03.588Z,2.47
2023-01-29T00:37:30.293Z,2.47
2023-01-29T00:39:57.150Z,2.46
2023-01-29T00:42:42.410Z,2.46
2023-01-29T00:45:11.674Z,2.46
2023-01-29T00:47:38.226Z,2.45
2023-01-29T00:50:11.224Z,2.46
2023-01-29T00:52:38.507Z,2.46
2023-01-29T00:55:06.143Z,2.48
2023-01-29T00:57:34.184Z,2.50
2023-01-29T01:00:01.816Z,2.49
2023-01-29T01:02:47.368Z,2.48
2023-01-29T01:05:19.572Z,2.48
2023-01-29T01:07:51.584Z,2.48
2023-01-29T01:10:31.238Z,2.48
2023-01-29T01:13:00.553Z,2.48
2023-01-29T01:15:30.641Z,2.46
2023-01-29T01:17:59.816Z,2.46
2023-01-29T01:20:28.289Z,2.45
2023-01-29T01:22:55.462Z,2.45
2023-01-29T01:25:24.142Z,2.47
2023-01-29T01:27:54.931Z,2.46
2023-01-29T01:30:22.284Z,2.48
2023-01-29T01:32:49.137Z,2.48
2023-01-29T01:35:15.996Z,2.47
2023-01-29T01:37:42.880Z,2.48
2023-01-29T01:40:20.902Z,2.50
2023-01-29T01:42:52.795Z,2.49
2023-01-29T01:45:19.159Z,2.48
2023-01-29T01:47:52.432Z,2.48
2023-01-29T01:50:24.191Z,2.49
2023-01-29T01:52:55.297Z,2.49
2023-01-29T01:55:25.331Z,2.47
2023-01-29T01:57:57.635Z,2.47
2023-01-29T02:00:26.741Z,2.46
2023-01-29T02:03:13.769Z,2.46
2023-01-29T02:06:00.512Z,2.49
2023-01-29T02:08:58.019Z,2.49
2023-01-29T02:11:25.104Z,2.49
2023-01-29T02:13:53.525Z,2.49
2023-01-29T02:16:25.467Z,2.47
2023-01-29T02:18:52.356Z,2.47
2023-01-29T02:21:36.163Z,2.43
2023-01-29T02:24:33.951Z,2.45
2023-01-29T02:27:16.782Z,2.45
2023-01-29T02:30:09.143Z,2.43
2023-01-29T02:32:54.408Z,2.40
2023-01-29T02:35:31.941Z,2.40
2023-01-29T02:38:24.893Z,2.40
2023-01-29T02:41:10.556Z,2.42
2023-01-29T02:44:07.843Z,2.40
2023-01-29T02:46:51.148Z,2.39
2023-01-29T02:49:31.682Z,2.38
2023-01-29T02:52:36.441Z,2.39
2023-01-29T02:55:21.859Z,2.39
2023-01-29T02:57:53.877Z,2.40
2023-01-29T03:00:43.370Z,2.40
2023-01-29T03:03:25.700Z,2.39
2023-01-29T03:06:02.253Z,2.41
2023-01-29T03:08:43.088Z,2.39
2023-01-29T03:11:15.554Z,2.39
2023-01-29T03:13:45.976Z,2.40
2023-01-29T03:16:21.907Z,2.41
2023-01-29T03:18:55.264Z,2.42
2023-01-29T03:21:55.063Z,2.41
2023-01-29T03:25:06.752Z,2.40
2023-01-29T03:28:03.764Z,2.44
2023-01-29T03:30:56.949Z,2.44
2023-01-29T03:33:35.561Z,2.42
2023-01-29T03:36:08.869Z,2.43
2023-01-29T03:38:35.427Z,2.40
2023-01-29T03:41:15.683Z,2.41
2023-01-29T03:44:01.500Z,2.40
2023-01-29T03:46:38.479Z,2.42
2023-01-29T03:49:26.848Z,2.42
2023-01-29T03:52:18.860Z,2.43
2023-01-29T03:55:18.513Z,2.41
2023-01-29T03:58:00.251Z,2.41
2023-01-29T04:00:30.527Z,2.40
2023-01-29T04:03:17.939Z,2.40
2023-01-29T04:06:09.862Z,2.40
2023-01-29T04:08:50.522Z,2.44
2023-01-29T04:11:19.892Z,2.42
2023-01-29T04:13:48.231Z,2.41
2023-01-29T04:16:24.349Z,2.40
2023-01-29T04:19:00.993Z,2.39
2023-01-29T04:21:32.947Z,2.38
2023-01-29T04:23:59.733Z,2.34
2023-01-29T04:27:03.908Z,2.34
2023-01-29T04:30:03.302Z,2.35
2023-01-29T04:32:48.058Z,2.34
2023-01-29T04:35:36.215Z,2.33
2023-01-29T04:38:12.681Z,2.33
2023-01-29T04:41:05.258Z,2.30
2023-01-29T04:43:54.230Z,2.29
2023-01-29T04:46:33.369Z,2.26
2023-01-29T04:49:17.709Z,2.27
2023-01-29T04:51:49.455Z,2.25
2023-01-29T04:54:19.407Z,2.23
2023-01-29T04:57:16.863Z,2.26
2023-01-29T04:59:50.839Z,2.28
2023-01-29T05:02:19.429Z,2.28
2023-01-29T05:04:46.942Z,2.26
2023-01-29T05:07:15.500Z,2.26
2023-01-29T05:09:45.400Z,2.26
2023-01-29T05:12:14.397Z,2.25
2023-01-29T05:14:44.037Z,2.24
2023-01-29T05:17:16.748Z,2.23
2023-01-29T05:19:43.471Z,2.21
2023-01-29T05:22:13.126Z,2.20
2023-01-29T05:24:39.646Z,2.21
2023-01-29T05:27:25.063Z,2.20
2023-01-29T05:29:51.523Z,2.17
2023-01-29T05:32:17.957Z,2.17
2023-01-29T05:34:44.447Z,2.16
2023-01-29T05:37:11.211Z,2.16
2023-01-29T05:39:37.678Z,2.18
2023-01-29T05:42:04.262Z,2.16
2023-01-29T05:44:30.790Z,2.15
2023-01-29T05:46:57.337Z,2.14
2023-01-29T05:49:24.066Z,2.13
2023-01-29T05:51:50.604Z,2.15
2023-01-29T05:54:17.062Z,2.15
2023-01-29T05:56:43.497Z,2.12
2023-01-29T05:59:10.044Z,2.11
2023-01-29T06:01:39.599Z,2.10
2023-01-29T06:04:08.579Z,2.12
2023-01-29T06:06:48.962Z,2.11
2023-01-29T06:09:15.483Z,2.10
2023-01-29T06:11:41.917Z,2.12
2023-01-29T06:14:08.415Z,2.10
2023-01-29T06:16:34.997Z,2.11
2023-01-29T06:19:01.650Z,2.10
2023-01-29T06:21:28.187Z,2.10
2023-01-29T06:23:54.793Z,2.11
2023-01-29T06:26:21.328Z,2.12
2023-01-29T06:28:51.411Z,2.11
2023-01-29T06:31:37.925Z,2.10
2023-01-29T06:34:05.411Z,2.10
2023-01-29T06:36:31.892Z,2.12
2023-01-29T06:38:58.401Z,2.13
2023-01-29T06:41:25.680Z,2.14
2023-01-29T06:43:52.806Z,2.12
2023-01-29T06:46:19.591Z,2.13
2023-01-29T06:48:46.179Z,2.14
2023-01-29T06:51:12.726Z,2.12
2023-01-29T06:53:39.566Z,2.12
2023-01-29T06:56:06.612Z,2.13
2023-01-29T06:58:33.605Z,2.11
2023-01-29T07:01:15.509Z,2.14
2023-01-29T07:03:52.053Z,2.15
2023-01-29T07:06:18.891Z,2.16
2023-01-29T07:08:45.555Z,2.15
2023-01-29T07:11:12.489Z,2.16
2023-01-29T07:13:38.977Z,2.16
2023-01-29T07:16:06.843Z,2.16
2023-01-29T07:18:33.355Z,2.13
2023-01-29T07:21:04.500Z,2.14
2023-01-29T07:23:30.958Z,2.16
2023-01-29T07:26:01.141Z,2.16
2023-01-29T07:28:27.643Z,2.15
2023-01-29T07:31:00.493Z,2.14
2023-01-29T07:33:27.095Z,2.15
2023-01-29T07:35:53.804Z,2.13
2023-01-29T07:38:20.458Z,2.14
2023-01-29T07:40:47.108Z,2.16
2023-01-29T07:43:13.992Z,2.17
2023-01-29T07:45:40.816Z,2.16
2023-01-29T07:48:10.787Z,2.17
2023-01-29T07:50:37.764Z,2.18
2023-01-29T07:53:04.621Z,2.19
2023-01-29T07:55:32.589Z,2.21
2023-01-29T07:58:01.252Z,2.22
2023-01-29T08:00:28.643Z,2.23
2023-01-29T08:03:05.205Z,2.24
2023-01-29T08:05:31.660Z,2.23
2023-01-29T08:08:06.412Z,2.23
2023-01-29T08:10:34.555Z,2.24
2023-01-29T08:13:02.000Z,2.27
2023-01-29T08:15:29.553Z,2.27
2023-01-29T08:20:42.777Z,2.29
2023-01-29T08:23:14.279Z,2.31
2023-01-29T08:25:41.565Z,2.32
2023-01-29T08:28:08.714Z,2.32
2023-01-29T08:30:36.152Z,2.35
2023-01-29T08:33:04.555Z,2.37
2023-01-29T08:35:31.246Z,2.38
2023-01-29T08:38:00.083Z,2.39
2023-01-29T08:40:28.676Z,2.40
2023-01-29T08:43:03.199Z,2.41
2023-01-29T08:45:32.976Z,2.43
2023-01-29T08:47:59.530Z,2.46
2023-01-29T08:50:26.141Z,2.49
2023-01-29T08:52:58.221Z,2.51
2023-01-29T08:55:25.331Z,2.53
2023-01-29T08:57:51.791Z,2.53
2023-01-29T09:00:18.929Z,2.55
2023-01-29T09:02:45.543Z,2.55
2023-01-29T09:05:12.115Z,2.56
2023-01-29T09:07:38.708Z,2.58
2023-01-29T09:10:05.742Z,2.59
2023-01-29T09:12:32.399Z,2.61
2023-01-29T09:14:58.914Z,2.63
2023-01-29T09:17:25.449Z,2.65
2023-01-29T09:19:53.057Z,2.67
2023-01-29T09:22:20.620Z,2.70
2023-01-29T09:24:47.110Z,2.72
2023-01-29T09:27:13.630Z,2.75
2023-01-29T09:29:40.084Z,2.78
2023-01-29T09:32:07.162Z,2.80
2023-01-29T09:34:34.472Z,2.81
2023-01-29T09:37:01.061Z,2.83
2023-01-29T09:39:27.644Z,2.84
2023-01-29T09:42:20.635Z,2.84
2023-01-29T09:45:10.773Z,2.86
2023-01-29T09:47:37.441Z,2.91
2023-01-29T09:50:18.426Z,2.94
2023-01-29T09:52:55.718Z,2.97
2023-01-29T09:55:29.082Z,2.98
2023-01-29T09:58:03.604Z,3.00
2023-01-29T10:00:39.699Z,3.03
2023-01-29T10:03:09.145Z,3.08
2023-01-29T10:06:08.625Z,3.12
2023-01-29T10:09:13.784Z,3.15
2023-01-29T10:11:51.799Z,3.18
2023-01-29T10:14:25.037Z,3.18
2023-01-29T10:17:29.030Z,3.20
2023-01-29T10:20:34.724Z,3.23
2023-01-29T10:23:21.561Z,3.23
2023-01-29T10:25:49.421Z,3.25
2023-01-29T10:28:22.097Z,3.24
2023-01-29T10:30:51.869Z,3.24
2023-01-29T10:33:49.323Z,3.22
2023-01-29T10:36:46.599Z,3.23
2023-01-29T10:39:24.635Z,3.25
2023-01-29T10:42:10.126Z,3.26
2023-01-29T10:45:00.614Z,3.29
2023-01-29T10:48:21.412Z,3.33
2023-01-29T10:50:54.261Z,3.37
2023-01-29T10:53:34.766Z,3.45
2023-01-29T10:56:21.858Z,3.47
2023-01-29T10:58:56.756Z,3.51
2023-01-29T11:01:23.911Z,3.51
2023-01-29T11:03:58.550Z,3.52
2023-01-29T11:06:36.107Z,3.55
2023-01-29T11:09:21.052Z,3.55
2023-01-29T11:11:53.006Z,3.56
2023-01-29T11:14:53.199Z,3.55
2023-01-29T11:17:23.212Z,3.58
2023-01-29T11:19:51.722Z,3.57
2023-01-29T11:22:26.520Z,3.62
2023-01-29T11:25:32.766Z,3.63
2023-01-29T11:28:01.756Z,3.61
2023-01-29T11:30:35.650Z,3.60
2023-01-29T11:33:23.784Z,3.60
2023-01-29T11:35:52.539Z,3.64
2023-01-29T11:38:23.569Z,3.64
2023-01-29T11:40:50.252Z,3.63
2023-01-29T11:43:32.987Z,3.63
2023-01-29T11:46:05.922Z,3.62
2023-01-29T11:48:40.786Z,3.63
2023-01-29T11:51:08.941Z,3.64
2023-01-29T11:53:40.188Z,3.64
2023-01-29T11:56:17.684Z,3.63
2023-01-29T11:58:46.229Z,3.63
2023-01-29T12:01:16.313Z,3.65
2023-01-29T12:03:48.765Z,3.63
2023-01-29T12:06:21.773Z,3.63
2023-01-29T12:09:01.405Z,3.65
2023-01-29T12:11:31.711Z,3.67
2023-01-29T12:14:03.162Z,3.67
2023-01-29T12:16:55.027Z,3.68
2023-01-29T12:19:40.624Z,3.68
2023-01-29T12:22:44.432Z,3.69
2023-01-29T12:25:41.389Z,3.69
2023-01-29T12:28:27.859Z,3.68
2023-01-29T12:31:36.637Z,3.69
2023-01-29T12:34:20.616Z,3.71
2023-01-29T12:36:55.394Z,3.75
2023-01-29T12:39:22.099Z,3.76
2023-01-29T12:41:58.059Z,3.76
2023-01-29T12:44:33.528Z,3.77
2023-01-29T12:47:05.355Z,3.77
2023-01-29T12:49:38.035Z,3.78
2023-01-29T12:52:07.055Z,3.75
2023-01-29T12:54:45.781Z,3.79
2023-01-29T12:57:34.430Z,3.81
2023-01-29T13:00:13.451Z,3.81
2023-01-29T13:02:49.833Z,3.80
2023-01-29T13:05:25.642Z,3.83
2023-01-29T13:08:02.987Z,3.81
2023-01-29T13:10:36.859Z,3.80
2023-01-29T13:13:44.664Z,3.80
2023-01-29T13:16:13.613Z,3.80
2023-01-29T13:18:52.837Z,3.83
2023-01-29T13:21:23.652Z,3.86
2023-01-29T13:23:53.323Z,3.89
2023-01-29T13:26:21.858Z,3.94
2023-01-29T13:28:49.589Z,4.00
2023-01-29T13:31:40.715Z,4.03
2023-01-29T13:34:15.181Z,4.10
2023-01-29T13:36:48.197Z,4.14
2023-01-29T13:39:29.455Z,4.17
2023-01-29T13:41:58.207Z,4.20
2023-01-29T13:44:34.418Z,4.24
2023-01-29T13:47:05.171Z,4.26
2023-01-29T13:50:07.700Z,4.29
2023-01-29T13:52:54.761Z,4.30
2023-01-29T13:55:31.038Z,4.31
2023-01-29T13:58:02.509Z,4.31
2023-01-29T14:00:34.745Z,4.32
2023-01-29T14:03:01.166Z,4.35
2023-01-29T14:05:30.804Z,4.34
2023-01-29T14:07:59.431Z,4.40
2023-01-29T14:10:33.913Z,4.39
2023-01-29T14:13:03.405Z,4.40
2023-01-29T14:15:41.851Z,4.40
2023-01-29T14:18:08.426Z,4.40
2023-01-29T14:20:46.716Z,4.41
2023-01-29T14:23:25.221Z,4.43
2023-01-29T14:25:51.973Z,4.45
2023-01-29T14:28:24.808Z,4.47
2023-01-29T14:30:52.417Z,4.46
2023-01-29T14:33:37.838Z,4.45
2023-01-29T14:36:13.229Z,4.49
2023-01-29T14:38:46.269Z,4.49
2023-01-29T14:41:18.855Z,4.49
2023-01-29T14:43:45.392Z,4.48
2023-01-29T14:46:33.742Z,4.51
2023-01-29T14:49:00.960Z,4.48
2023-01-29T14:51:34.634Z,4.47
2023-01-29T14:54:13.218Z,4.46
2023-01-29T14:56:50.643Z,4.47
2023-01-29T14:59:22.062Z,4.45
2023-01-29T15:01:56.059Z,4.44
2023-01-29T15:04:27.295Z,4.43
2023-01-29T15:07:04.714Z,4.44
2023-01-29T15:09:36.695Z,4.44
2023-01-29T15:12:14.242Z,4.47
2023-01-29T15:14:52.300Z,4.48
2023-01-29T15:17:25.083Z,4.51
2023-01-29T15:19:51.714Z,4.51
2023-01-29T15:22:20.388Z,4.48
2023-01-29T15:25:01.836Z,4.45
2023-01-29T15:27:28.680Z,4.44
2023-01-29T15:30:02.372Z,4.42
2023-01-29T15:32:37.639Z,4.41
2023-01-29T15:35:20.223Z,4.42
2023-01-29T15:38:14.095Z,4.43
2023-01-29T15:40:40.732Z,4.43
2023-01-29T15:43:22.574Z,4.43
2023-01-29T15:45:49.872Z,4.42
2023-01-29T15:48:20.573Z,4.39
2023-01-29T15:50:50.862Z,4.37
2023-01-29T15:53:25.197Z,4.38
2023-01-29T15:55:51.820Z,4.37
2023-01-29T15:58:22.802Z,4.39
2023-01-29T16:00:55.382Z,4.34
2023-01-29T16:03:28.127Z,4.34
2023-01-29T16:05:55.312Z,4.32
2023-01-29T16:08:23.662Z,4.28
2023-01-29T16:10:56.529Z,4.28
2023-01-29T16:13:26.136Z,4.28
2023-01-29T16:16:19.599Z,4.26
2023-01-29T16:18:59.517Z,4.25
2023-01-29T16:21:37.784Z,4.23
2023-01-29T16:24:13.848Z,4.17
2023-01-29T16:26:44.800Z,4.14
2023-01-29T16:29:14.731Z,4.12
2023-01-29T16:31:44.345Z,4.08
2023-01-29T16:34:34.940Z,4.10
2023-01-29T16:37:05.432Z,4.11
2023-01-29T16:39:45.953Z,4.06
2023-01-29T16:42:12.885Z,4.02
2023-01-29T16:44:45.583Z,3.99
2023-01-29T16:47:14.562Z,3.96
2023-01-29T16:49:45.457Z,3.92
2023-01-29T16:52:20.270Z,3.96
2023-01-29T16:54:46.897Z,3.93
2023-01-29T16:57:21.502Z,3.90
2023-01-29T16:59:48.903Z,3.89
2023-01-29T17:02:26.456Z,3.88
2023-01-29T17:04:57.191Z,3.87
2023-01-29T17:07:23.756Z,3.82
2023-01-29T17:09:54.596Z,3.77
2023-01-29T17:12:23.918Z,3.75
2023-01-29T17:15:05.929Z,3.77
2023-01-29T17:17:33.060Z,3.77
2023-01-29T17:20:14.161Z,3.74
2023-01-29T17:22:40.824Z,3.73
2023-01-29T17:25:07.733Z,3.68
2023-01-29T17:27:34.227Z,3.69
2023-01-29T17:30:00.862Z,3.68
2023-01-29T17:32:39.903Z,3.68
2023-01-29T17:35:13.963Z,3.68
2023-01-29T17:37:40.823Z,3.67
2023-01-29T17:40:47.510Z,3.67
2023-01-29T17:43:14.111Z,3.66
2023-01-29T17:45:41.261Z,3.66
2023-01-29T17:48:12.749Z,3.65
2023-01-29T17:50:40.817Z,3.64
2023-01-29T17:53:07.294Z,3.64
2023-01-29T17:55:33.814Z,3.64
2023-01-29T17:58:00.321Z,3.63
2023-01-29T18:00:26.793Z,3.62
2023-01-29T18:02:54.275Z,3.60
2023-01-29T18:05:20.987Z,3.60
2023-01-29T18:07:47.949Z,3.60
2023-01-29T18:10:20.327Z,3.58
2023-01-29T18:12:47.340Z,3.60
2023-01-29T18:15:13.916Z,3.61
2023-01-29T18:17:41.295Z,3.60
2023-01-29T18:20:25.832Z,3.63
2023-01-29T18:22:52.943Z,3.59
2023-01-29T18:25:19.880Z,3.61
2023-01-29T18:27:46.526Z,3.60
2023-01-29T18:30:13.875Z,3.63
2023-01-29T18:32:40.612Z,3.62
2023-01-29T18:35:08.099Z,3.63
2023-01-29T18:37:34.751Z,3.65
2023-01-29T18:40:01.284Z,3.64
2023-01-29T18:42:31.263Z,3.63
2023-01-29T18:44:57.756Z,3.64
2023-01-29T18:47:24.408Z,3.66
2023-01-29T18:49:51.845Z,3.66
2023-01-29T18:52:18.477Z,3.66
2023-01-29T18:54:44.900Z,3.67
2023-01-29T18:57:14.921Z,3.67
2023-01-29T18:59:58.090Z,3.67
2023-01-29T19:02:24.818Z,3.66
2023-01-29T19:04:51.666Z,3.65
2023-01-29T19:07:18.134Z,3.66
2023-01-29T19:09:46.554Z,3.67
2023-01-29T19:12:13.165Z,3.66
2023-01-29T19:14:39.690Z,3.65
2023-01-29T19:17:06.348Z,3.65
2023-01-29T19:19:33.011Z,3.63
2023-01-29T19:21:59.627Z,3.65
2023-01-29T19:24:27.515Z,3.63
2023-01-29T19:26:54.100Z,3.62
2023-01-29T19:29:20.687Z,3.63
2023-01-29T19:31:47.610Z,3.64
2023-01-29T19:34:14.260Z,3.65
2023-01-29T19:36:40.915Z,3.65
2023-01-29T19:39:07.373Z,3.65
2023-01-29T19:41:34.857Z,3.64
2023-01-29T19:44:01.369Z,3.67
2023-01-29T19:46:30.072Z,3.66
2023-01-29T19:48:58.534Z,3.66
2023-01-29T19:51:27.226Z,3.66
2023-01-29T19:53:55.349Z,3.65
2023-01-29T19:56:21.826Z,3.64
2023-01-29T19:58:48.408Z,3.65
2023-01-29T20:01:20.844Z,3.65
2023-01-29T20:03:48.953Z,3.66
2023-01-29T20:06:18.067Z,3.64
2023-01-29T20:08:47.139Z,3.66
2023-01-29T20:11:15.136Z,3.67
2023-01-29T20:13:41.911Z,3.67
2023-01-29T20:16:08.856Z,3.68
2023-01-29T20:18:35.356Z,3.71
2023-01-29T20:21:16.429Z,3.69
2023-01-29T20:23:45.030Z,3.70
2023-01-29T20:26:14.763Z,3.70
2023-01-29T20:28:41.966Z,3.71
2023-01-29T20:31:09.797Z,3.71
2023-01-29T20:33:39.164Z,3.71
2023-01-29T20:36:09.041Z,3.72
2023-01-29T20:38:35.849Z,3.73
2023-01-29T20:41:07.958Z,3.75
2023-01-29T20:43:34.872Z,3.74
2023-01-29T20:46:02.352Z,3.74
2023-01-29T20:48:29.810Z,3.75
2023-01-29T20:50:56.967Z,3.76
2023-01-29T20:53:23.424Z,3.78
2023-01-29T20:55:50.007Z,3.79
2023-01-29T20:58:16.545Z,3.78
2023-01-29T21:00:44.268Z,3.78
2023-01-29T21:03:10.769Z,3.80
2023-01-29T21:05:37.239Z,3.83
2023-01-29T21:08:03.746Z,3.84
2023-01-29T21:10:30.186Z,3.86
2023-01-29T21:12:56.864Z,3.88
2023-01-29T21:15:24.644Z,3.88
2023-01-29T21:17:52.301Z,3.91
2023-01-29T21:20:19.071Z,3.91
2023-01-29T21:22:45.743Z,3.93
2023-01-29T21:25:12.256Z,3.95
2023-01-29T21:27:38.720Z,3.96
2023-01-29T21:30:05.876Z,3.99
2023-01-29T21:32:32.536Z,4.02
2023-01-29T21:34:59.039Z,4.05
2023-01-29T21:37:25.612Z,4.09
2023-01-29T21:39:52.159Z,4.13
2023-01-29T21:42:37.335Z,4.15
2023-01-29T21:45:04.285Z,4.18
2023-01-29T21:47:30.715Z,4.18
2023-01-29T21:49:57.135Z,4.21
2023-01-29T21:52:23.631Z,4.23
2023-01-29T21:54:50.248Z,4.25
2023-01-29T21:57:16.923Z,4.28
2023-01-29T21:59:43.486Z,4.28
2023-01-29T22:02:17.307Z,4.31
2023-01-29T22:04:43.932Z,4.33
2023-01-29T22:07:11.521Z,4.34
2023-01-29T22:09:38.503Z,4.34
2023-01-29T22:12:08.989Z,4.35
2023-01-29T22:14:35.724Z,4.39
2023-01-29T22:17:02.245Z,4.45
2023-01-29T22:19:29.422Z,4.50
2023-01-29T22:21:56.365Z,4.51
2023-01-29T22:24:23.498Z,4.50
2023-01-29T22:26:50.133Z,4.50
2023-01-29T22:29:17.350Z,4.49
2023-01-29T22:31:44.468Z,4.49
2023-01-29T22:34:12.560Z,4.51
2023-01-29T22:36:39.102Z,4.51
2023-01-29T22:39:09.278Z,4.52
2023-01-29T22:41:36.356Z,4.54
2023-01-29T22:44:02.997Z,4.54
2023-01-29T22:46:29.601Z,4.55
2023-01-29T22:48:56.513Z,4.59
2023-01-29T22:51:23.368Z,4.61
2023-01-29T22:53:54.704Z,4.63
2023-01-29T22:56:26.239Z,4.65
2023-01-29T22:58:54.722Z,4.67
2023-01-29T23:01:22.938Z,4.69
2023-01-29T23:03:49.618Z,4.72
2023-01-29T23:06:16.670Z,4.75
2023-01-29T23:08:43.166Z,4.75
2023-01-29T23:11:14.721Z,4.79
2023-01-29T23:13:46.894Z,4.82
2023-01-29T23:16:15.219Z,4.84
2023-01-29T23:18:42.105Z,4.87
2023-01-29T23:21:09.488Z,4.88
2023-01-29T23:23:37.253Z,4.91
2023-01-29T23:26:25.286Z,4.94
2023-01-29T23:28:51.951Z,4.97
2023-01-29T23:31:18.955Z,4.99
2023-01-29T23:33:45.495Z,5.03
2023-01-29T23:36:12.293Z,5.06
2023-01-29T23:38:39.299Z,5.09
2023-01-29T23:41:06.229Z,5.11
2023-01-29T23:43:32.968Z,5.13
2023-01-29T23:45:59.669Z,5.16
2023-01-29T23:48:26.159Z,5.19
2023-01-29T23:50:52.645Z,5.18
2023-01-29T23:53:19.200Z,5.21
2023-01-29T23:55:56.095Z,5.22
2023-01-29T23:58:22.792Z,5.25
